createdAt,value
2023-05-20T00:00:00.343Z,1.3
2023-05-20T00:05:00.645Z,1.0
2023-05-20T00:10:00.521Z,0.1
2023-05-20T00:15:00.325Z,0.0
2023-05-20T00:20:00.570Z,0.7
2023-05-20T00:25:00.369Z,0.3
2023-05-20T00:30:00.446Z,0.0
2023-05-20T00:35:00.330Z,0.0
2023-05-20T00:40:00.372Z,1.4
2023-05-20T00:50:00.409Z,0.0
2023-05-20T00:55:00.262Z,0.0
2023-05-20T01:00:00.430Z,0.0
2023-05-20T01:05:00.302Z,0.0
2023-05-20T01:10:00.427Z,0.0
2023-05-20T01:15:00.275Z,0.0
2023-05-20T01:20:00.373Z,0.2
2023-05-20T01:25:00.481Z,0.1
2023-05-20T01:30:00.405Z,0.2
2023-05-20T01:35:00.358Z,0.0
2023-05-20T01:40:00.409Z,0.2
2023-05-20T01:45:00.356Z,1.2
2023-05-20T01:50:00.459Z,0.9
2023-05-20T01:55:00.261Z,0.5
2023-05-20T02:00:00.319Z,1.3
2023-05-20T02:05:00.263Z,1.2
2023-05-20T02:10:00.328Z,0.5
2023-05-20T02:15:00.286Z,1.3
2023-05-20T02:20:00.324Z,2.5
2023-05-20T02:25:00.319Z,1.8
2023-05-20T02:30:00.364Z,1.9
2023-05-20T02:35:00.328Z,1.6
2023-05-20T02:40:00.315Z,1.3
2023-05-20T02:45:00.312Z,1.5
2023-05-20T02:50:00.335Z,2.4
2023-05-20T02:55:00.495Z,2.2
2023-05-20T03:00:00.315Z,2.1
2023-05-20T03:05:00.288Z,2.7
2023-05-20T03:10:00.425Z,3.7
2023-05-20T03:15:00.307Z,3.1
2023-05-20T03:20:00.365Z,3.0
2023-05-20T03:25:00.281Z,2.4
2023-05-20T03:30:00.353Z,3.2
2023-05-20T03:35:00.269Z,3.5
2023-05-20T03:40:00.318Z,3.7
2023-05-20T03:45:00.274Z,2.2
2023-05-20T03:50:00.347Z,3.6
2023-05-20T03:55:00.359Z,3.9
2023-05-20T04:00:00.305Z,3.7
2023-05-20T04:05:00.261Z,4.1
2023-05-20T04:10:00.351Z,5.8
2023-05-20T04:15:00.307Z,4.5
2023-05-20T04:20:00.562Z,5.4
2023-05-20T04:25:00.318Z,3.9
2023-05-20T04:30:00.273Z,6.0
2023-05-20T04:35:00.285Z,5.7
2023-05-20T04:40:00.363Z,6.4
2023-05-20T04:45:00.317Z,5.6
2023-05-20T04:50:00.343Z,7.5
2023-05-20T04:55:00.259Z,5.9
2023-05-20T05:00:00.316Z,3.8
2023-05-20T05:05:00.481Z,4.0
2023-05-20T05:10:00.336Z,5.1
2023-05-20T05:15:00.324Z,4.4
2023-05-20T05:20:00.414Z,4.7
2023-05-20T05:25:00.356Z,4.6
2023-05-20T05:30:00.593Z,6.0
2023-05-20T05:35:00.316Z,5.7
2023-05-20T05:40:00.329Z,5.8
2023-05-20T05:45:00.256Z,7.8
2023-05-20T05:50:00.638Z,6.1
2023-05-20T05:55:00.332Z,5.3
2023-05-20T06:00:00.319Z,7.8
2023-05-20T06:05:00.347Z,9.3
2023-05-20T06:10:00.347Z,5.7
2023-05-20T06:15:00.315Z,11.0
2023-05-20T06:20:00.358Z,8.4
2023-05-20T06:25:00.283Z,8.4
2023-05-20T06:30:03.866Z,6.2
2023-05-20T06:35:00.371Z,8.2
2023-05-20T06:40:00.327Z,9.6
2023-05-20T06:45:00.291Z,9.2
2023-05-20T06:50:00.336Z,6.6
2023-05-20T06:55:00.350Z,5.7
2023-05-20T07:00:00.328Z,10.1
2023-05-20T07:05:00.324Z,9.6
2023-05-20T07:10:00.346Z,7.5
2023-05-20T07:15:00.320Z,11.6
2023-05-20T07:20:00.357Z,9.6
2023-05-20T07:25:00.263Z,7.2
2023-05-20T07:30:00.367Z,4.8
2023-05-20T07:35:00.276Z,5.3
2023-05-20T07:40:00.355Z,6.3
2023-05-20T07:45:00.431Z,10.2
2023-05-20T07:50:00.347Z,9.2
2023-05-20T07:55:00.322Z,7.9
2023-05-20T08:00:00.563Z,7.7
2023-05-20T08:05:00.439Z,8.0
2023-05-20T08:10:00.316Z,6.6
2023-05-20T08:15:00.314Z,7.1
2023-05-20T08:20:00.326Z,8.5
2023-05-20T08:25:00.333Z,10.3
2023-05-20T08:30:01.224Z,6.6
2023-05-20T08:35:00.257Z,9.0
2023-05-20T08:40:00.361Z,9.0
2023-05-20T08:45:00.276Z,9.9
2023-05-20T08:50:00.320Z,8.7
2023-05-20T08:55:00.329Z,5.4
2023-05-20T09:00:00.327Z,8.2
2023-05-20T09:05:00.469Z,10.0
2023-05-20T09:10:00.427Z,9.8
2023-05-20T09:15:00.286Z,11.2
2023-05-20T09:20:00.347Z,11.4
2023-05-20T09:25:00.270Z,13.0
2023-05-20T09:30:00.356Z,12.0
2023-05-20T09:35:00.247Z,10.5
2023-05-20T09:40:00.441Z,11.6
2023-05-20T09:45:00.531Z,11.7
2023-05-20T09:50:00.348Z,10.1
2023-05-20T09:55:00.295Z,9.5
2023-05-20T10:00:00.350Z,9.5
2023-05-20T10:05:00.335Z,4.8
2023-05-20T10:10:00.333Z,11.3
2023-05-20T10:15:00.334Z,11.3
2023-05-20T10:20:00.367Z,4.3
2023-05-20T10:25:00.380Z,5.1
2023-05-20T10:30:00.487Z,9.7
2023-05-20T10:35:00.347Z,7.9
2023-05-20T10:40:00.342Z,11.9
2023-05-20T10:45:00.552Z,8.1
2023-05-20T10:50:00.313Z,10.3
2023-05-20T10:55:00.317Z,9.6
2023-05-20T11:00:00.368Z,11.7
2023-05-20T11:05:00.345Z,11.4
2023-05-20T11:10:00.324Z,11.9
2023-05-20T11:15:00.328Z,10.8
2023-05-20T11:20:00.334Z,11.8
2023-05-20T11:25:00.363Z,8.8
2023-05-20T11:30:00.538Z,8.5
2023-05-20T11:35:00.358Z,10.3
2023-05-20T11:40:00.317Z,8.9
2023-05-20T11:45:01.514Z,10.9
2023-05-20T11:50:00.348Z,11.4
2023-05-20T11:55:00.258Z,9.3
2023-05-20T12:00:00.357Z,13.2
2023-05-20T12:05:00.630Z,11.0
2023-05-20T12:10:00.332Z,8.9
2023-05-20T12:15:00.313Z,9.6
2023-05-20T12:20:00.359Z,12.7
2023-05-20T12:25:00.382Z,11.0
2023-05-20T12:30:00.439Z,9.1
2023-05-20T12:35:00.322Z,13.6
2023-05-20T12:40:00.360Z,13.0
2023-05-20T12:45:00.592Z,10.0
2023-05-20T12:50:00.267Z,7.8
2023-05-20T12:55:00.342Z,11.8
2023-05-20T13:00:00.367Z,10.8
2023-05-20T13:05:00.338Z,15.6
2023-05-20T13:10:00.339Z,12.7
2023-05-20T13:15:00.349Z,13.2
2023-05-20T13:20:00.623Z,16.8
2023-05-20T13:25:00.269Z,11.7
2023-05-20T13:30:00.378Z,11.5
2023-05-20T13:35:00.291Z,12.6
2023-05-20T13:40:00.552Z,12.6
2023-05-20T13:45:00.332Z,11.9
2023-05-20T13:50:03.457Z,15.5
2023-05-20T13:55:00.323Z,13.0
2023-05-20T14:00:00.474Z,11.6
2023-05-20T14:05:00.324Z,13.7
2023-05-20T14:10:00.343Z,15.0
2023-05-20T14:15:00.848Z,13.1
2023-05-20T14:20:00.464Z,15.2
2023-05-20T14:25:00.324Z,14.2
2023-05-20T14:30:00.322Z,11.7
2023-05-20T14:35:00.316Z,15.6
2023-05-20T14:40:00.366Z,9.7
2023-05-20T14:45:00.326Z,13.6
2023-05-20T14:50:00.323Z,8.5
2023-05-20T14:55:00.798Z,13.7
2023-05-20T15:00:00.320Z,13.8
2023-05-20T15:05:00.441Z,13.2
2023-05-20T15:10:00.439Z,13.9
2023-05-20T15:15:00.370Z,13.4
2023-05-20T15:20:00.525Z,13.7
2023-05-20T15:25:00.324Z,11.6
2023-05-20T15:30:00.367Z,10.7
2023-05-20T15:35:02.876Z,14.1
2023-05-20T15:40:00.360Z,16.8
2023-05-20T15:45:00.540Z,13.2
2023-05-20T15:50:00.326Z,10.7
2023-05-20T15:55:00.300Z,9.7
2023-05-20T16:00:00.441Z,13.1
2023-05-20T16:05:00.281Z,13.7
2023-05-20T16:10:00.533Z,8.8
2023-05-20T16:15:00.326Z,11.5
2023-05-20T16:20:00.686Z,12.1
2023-05-20T16:25:00.440Z,11.7
2023-05-20T16:30:00.599Z,9.9
2023-05-20T16:35:00.349Z,13.9
2023-05-20T16:40:00.711Z,13.6
2023-05-20T16:45:00.358Z,12.3
2023-05-20T16:50:00.336Z,11.2
2023-05-20T16:55:00.295Z,9.6
2023-05-20T17:00:00.335Z,10.0
2023-05-20T17:05:00.452Z,11.5
2023-05-20T17:10:00.448Z,10.4
2023-05-20T17:15:00.398Z,10.7
2023-05-20T17:20:00.401Z,10.6
2023-05-20T17:25:00.431Z,8.6
2023-05-20T17:30:00.440Z,8.8
2023-05-20T17:35:00.343Z,10.2
2023-05-20T17:40:00.380Z,8.5
2023-05-20T17:45:00.411Z,9.9
2023-05-20T17:50:00.650Z,4.9
2023-05-20T17:55:00.311Z,8.3
2023-05-20T18:00:00.336Z,7.2
2023-05-20T18:05:00.285Z,4.1
2023-05-20T18:10:00.338Z,6.5
2023-05-20T18:15:00.500Z,6.6
2023-05-20T18:20:00.384Z,5.8
2023-05-20T18:25:00.335Z,4.5
2023-05-20T18:30:00.391Z,3.4
2023-05-20T18:35:00.299Z,3.4
2023-05-20T18:40:00.429Z,2.7
2023-05-20T18:45:00.352Z,4.1
2023-05-20T18:50:00.449Z,3.1
2023-05-20T18:55:00.336Z,3.7
2023-05-20T19:00:00.359Z,3.9
2023-05-20T19:05:00.449Z,3.0
2023-05-20T19:10:00.435Z,3.9
2023-05-20T19:15:01.085Z,4.2
2023-05-20T19:20:00.378Z,5.1
2023-05-20T19:25:00.304Z,4.4
2023-05-20T19:30:00.381Z,4.9
2023-05-20T19:35:00.283Z,4.4
2023-05-20T19:40:00.333Z,2.9
2023-05-20T19:45:00.283Z,2.6
2023-05-20T19:50:00.375Z,2.7
2023-05-20T19:55:00.382Z,2.9
2023-05-20T20:00:00.338Z,0.8
2023-05-20T20:05:00.737Z,3.7
2023-05-20T20:10:00.359Z,2.1
2023-05-20T20:15:00.473Z,2.0
2023-05-20T20:20:00.383Z,1.7
2023-05-20T20:25:00.525Z,1.8
2023-05-20T20:30:00.359Z,0.8
2023-05-20T20:35:00.375Z,1.7
2023-05-20T20:40:00.364Z,1.6
2023-05-20T20:45:00.423Z,1.0
2023-05-20T20:50:00.266Z,0.1
2023-05-20T20:55:00.326Z,0.3
2023-05-20T21:00:00.375Z,0.1
2023-05-20T21:05:00.262Z,0.2
2023-05-20T21:10:00.332Z,0.0
2023-05-20T21:15:00.360Z,0.0
2023-05-20T21:20:00.376Z,0.0
2023-05-20T21:25:00.252Z,0.4
2023-05-20T21:30:00.356Z,1.0
2023-05-20T21:35:00.335Z,0.9
2023-05-20T21:40:00.432Z,1.5
2023-05-20T21:45:00.921Z,2.0
2023-05-20T21:50:00.600Z,1.9
2023-05-20T21:55:00.458Z,2.5
2023-05-20T22:00:00.560Z,1.7
2023-05-20T22:05:00.682Z,2.6
2023-05-20T22:10:00.374Z,2.6
2023-05-20T22:15:00.426Z,1.7
2023-05-20T22:20:00.378Z,0.6
2023-05-20T22:25:00.335Z,0.4
2023-05-20T22:30:00.493Z,2.7
2023-05-20T22:35:00.552Z,2.5
2023-05-20T22:40:00.367Z,2.7
2023-05-20T22:45:00.605Z,3.4
2023-05-20T22:50:00.469Z,3.2
2023-05-20T22:55:00.467Z,2.6
2023-05-20T23:00:00.501Z,1.3
2023-05-20T23:05:00.561Z,1.6
2023-05-20T23:10:00.590Z,0.4
2023-05-20T23:15:00.564Z,0.5
2023-05-20T23:20:00.478Z,1.1
2023-05-20T23:25:00.488Z,1.2
2023-05-20T23:30:00.710Z,0.5
2023-05-20T23:35:00.466Z,0.0
2023-05-20T23:40:00.539Z,0.0
2023-05-20T23:45:00.464Z,0.1
2023-05-20T23:50:00.914Z,0.0
2023-05-20T23:55:00.513Z,0.0
